Terminal Aerodrome Forecast
Issued by NWS

Home | Current Version | Previous Version | Text Only | Print | Product List | Glossary On
Versions: 1 2 3 4 5 6 7 8 9 10 11 12
064
FTUS44 KLIX 301743
TAFMCB
TAF
KMCB 301743Z 3018/3118 31007KT P6SM FEW029 SCT040 SCT060
      TEMPO 3019/3023 VRB13G25KT 2SM TSRA BKN028CB
     FM302300 22004KT P6SM SCT050 BKN060
     FM310300 VRB03KT P6SM BKN110 BKN250
     FM310500 00000KT P6SM FEW100 SCT110=

USA.gov is the U.S. government's official web portal to all federal, state and local government web resources and services.